Time;durP1;ratioP1;P1;durP2;ratioP2;P2;SDS_P1;SDS_P2;PMS_P1;PMS_P2;Temp;Humidity;BMP_temperature;BMP_pressure;BME280_temperature;BME280_humidity;BME280_pressure;Samples;Min_cycle;Max_cycle;Signal;HPM_P1;HPM_P2
2023/12/06 00:00:33;;;;;;;61.53;29.63;;;-1.60;99.90;;;;;;5074125;28;20588;-81
2023/12/06 00:03:01;;;;;;;59.95;32.83;;;-1.60;99.90;;;;;;5072203;28;20207;-83
2023/12/06 00:05:28;;;;;;;51.65;30.88;;;-1.60;99.90;;;;;;5080720;28;20211;-80
2023/12/06 00:07:56;;;;;;;56.15;31.75;;;-1.60;99.90;;;;;;5078629;28;20207;-81
2023/12/06 00:10:23;;;;;;;61.05;32.72;;;-1.70;99.90;;;;;;5064593;28;20226;-80
2023/12/06 00:12:50;;;;;;;57.05;30.98;;;-1.70;99.90;;;;;;5075263;28;20705;-80
2023/12/06 00:15:17;;;;;;;50.55;27.42;;;-1.60;99.90;;;;;;5084509;28;20609;-82
2023/12/06 00:17:45;;;;;;;60.13;32.55;;;-1.70;99.90;;;;;;5086045;28;20493;-81
2023/12/06 00:20:12;;;;;;;60.75;32.38;;;-1.70;99.90;;;;;;5085340;28;20339;-82
2023/12/06 00:22:40;;;;;;;58.28;31.60;;;-1.70;99.90;;;;;;5073501;28;20482;-81
2023/12/06 00:25:09;;;;;;;57.05;29.05;;;-1.70;99.90;;;;;;5065468;28;20216;-82
2023/12/06 00:27:36;;;;;;;56.17;33.70;;;-1.70;99.90;;;;;;5079699;28;20204;-82
2023/12/06 00:30:03;;;;;;;69.13;35.10;;;-1.70;99.90;;;;;;5070912;28;21110;-82
2023/12/06 00:32:30;;;;;;;57.43;32.17;;;-1.70;99.90;;;;;;5084668;28;20940;-81
2023/12/06 00:34:57;;;;;;;54.40;31.43;;;-1.70;99.90;;;;;;5072642;28;20441;-81
2023/12/06 00:37:24;;;;;;;52.45;31.25;;;-1.70;99.90;;;;;;5083264;28;20548;-82
2023/12/06 00:39:51;;;;;;;53.20;31.00;;;-1.70;99.90;;;;;;5081479;28;20261;-82
2023/12/06 00:42:19;;;;;;;56.53;31.80;;;-1.60;99.90;;;;;;5086285;28;20312;-82
2023/12/06 00:44:46;;;;;;;59.47;31.13;;;-1.50;99.90;;;;;;5078443;28;20531;-81
2023/12/06 00:47:13;;;;;;;56.57;29.07;;;-1.60;99.90;;;;;;5075032;28;20505;-82
2023/12/06 00:49:40;;;;;;;61.60;31.30;;;-1.60;99.90;;;;;;5077984;28;21055;-81
2023/12/06 00:52:08;;;;;;;55.83;33.30;;;-1.50;99.90;;;;;;5067187;28;20208;-81
2023/12/06 00:54:34;;;;;;;58.77;32.20;;;-1.50;99.90;;;;;;5073341;28;21009;-81
2023/12/06 00:57:01;;;;;;;56.60;30.00;;;-1.50;99.90;;;;;;5078549;28;20545;-81
2023/12/06 00:59:30;;;;;;;60.47;35.63;;;-1.50;99.90;;;;;;5086427;28;20450;-82
2023/12/06 01:01:57;;;;;;;65.00;31.77;;;-1.50;99.90;;;;;;5075994;28;20446;-82
2023/12/06 01:04:24;;;;;;;55.07;31.70;;;-1.60;99.90;;;;;;5077221;28;20473;-82
2023/12/06 01:06:51;;;;;;;62.67;31.37;;;-1.60;99.90;;;;;;5068368;28;20462;-82
2023/12/06 01:09:18;;;;;;;58.53;32.00;;;-1.60;99.90;;;;;;5082536;28;20490;-82
2023/12/06 01:11:45;;;;;;;63.67;31.17;;;-1.70;99.90;;;;;;5067987;28;20548;-82
2023/12/06 01:14:12;;;;;;;59.20;30.52;;;-1.70;99.90;;;;;;5075622;28;20220;-82
2023/12/06 01:16:40;;;;;;;58.53;29.90;;;-1.80;99.90;;;;;;5079574;28;20208;-82
2023/12/06 01:19:07;;;;;;;54.17;31.30;;;-1.70;99.90;;;;;;5070027;28;20471;-82
2023/12/06 01:21:34;;;;;;;60.88;31.58;;;-1.50;99.90;;;;;;5065585;28;20470;-82
2023/12/06 01:24:01;;;;;;;62.53;32.33;;;-1.50;99.90;;;;;;5068502;28;20640;-82
2023/12/06 01:26:28;;;;;;;59.80;32.20;;;-1.50;99.90;;;;;;5073011;28;20204;-82
2023/12/06 01:28:55;;;;;;;60.85;29.63;;;-1.50;99.90;;;;;;5065360;28;20633;-83
2023/12/06 01:31:22;;;;;;;59.15;32.85;;;-1.50;99.90;;;;;;5070221;28;20208;-82
2023/12/06 01:33:50;;;;;;;61.45;33.25;;;-1.50;99.90;;;;;;5062995;28;20216;-82
2023/12/06 01:36:17;;;;;;;60.08;33.97;;;-1.60;99.90;;;;;;5063376;28;20220;-82
2023/12/06 01:38:44;;;;;;;53.25;32.10;;;-1.70;99.90;;;;;;5070397;28;20281;-82
2023/12/06 01:41:11;;;;;;;64.72;33.70;;;-1.70;99.90;;;;;;5072815;28;20286;-82
2023/12/06 01:43:42;;;;;;;56.63;32.13;;;-1.60;99.90;;;;;;5072916;28;20216;-82
2023/12/06 01:46:09;;;;;;;57.55;31.73;;;-1.70;99.90;;;;;;5064241;28;20260;-81
2023/12/06 01:48:37;;;;;;;46.83;29.73;;;-1.70;99.90;;;;;;5069284;28;20232;-82
2023/12/06 01:51:06;;;;;;;55.67;33.83;;;-1.70;99.90;;;;;;5081939;28;20482;-82
2023/12/06 01:53:33;;;;;;;58.92;28.60;;;-1.60;99.90;;;;;;5065933;28;20205;-82
2023/12/06 01:56:01;;;;;;;57.20;31.90;;;-1.70;99.90;;;;;;5073083;28;20317;-82
2023/12/06 01:58:29;;;;;;;57.93;31.50;;;-1.80;99.90;;;;;;5071280;28;20346;-82
2023/12/06 02:00:56;;;;;;;54.40;31.42;;;-1.70;99.90;;;;;;5063395;28;20467;-82
2023/12/06 02:03:23;;;;;;;56.87;31.13;;;-1.80;99.90;;;;;;5069412;28;20702;-82
2023/12/06 02:05:51;;;;;;;53.42;29.95;;;-1.70;99.90;;;;;;5061621;28;20473;-83
2023/12/06 02:08:20;;;;;;;55.38;31.20;;;-1.70;99.90;;;;;;5057957;28;20684;-83
2023/12/06 02:10:48;;;;;;;50.90;30.92;;;-1.50;99.90;;;;;;5066880;28;20269;-82
2023/12/06 02:13:17;;;;;;;60.83;29.73;;;-1.60;99.90;;;;;;5074420;28;20294;-83
2023/12/06 02:15:44;;;;;;;54.00;32.80;;;-1.60;99.90;;;;;;5061039;28;20894;-83
2023/12/06 02:18:11;;;;;;;46.30;27.67;;;-1.70;99.90;;;;;;5072466;28;20555;-83
2023/12/06 02:20:38;;;;;;;45.63;27.13;;;-1.80;99.90;;;;;;5069586;28;20477;-82
2023/12/06 02:23:09;;;;;;;47.90;29.00;;;-1.60;99.90;;;;;;5073213;28;20927;-82
2023/12/06 02:25:37;;;;;;;53.67;28.23;;;-1.70;99.90;;;;;;5064148;28;20722;-83
2023/12/06 02:28:04;;;;;;;53.70;31.70;;;-1.80;99.90;;;;;;5067077;28;20224;-82
2023/12/06 02:30:30;;;;;;;56.45;30.67;;;-1.80;99.90;;;;;;5071443;28;20486;-81
2023/12/06 02:32:57;;;;;;;58.27;32.67;;;-1.80;99.90;;;;;;5061799;28;20216;-81
2023/12/06 02:35:29;;;;;;;64.22;30.52;;;-1.60;99.90;;;;;;5070357;28;20470;-82
2023/12/06 02:37:58;;;;;;;62.57;32.73;;;-1.60;99.90;;;;;;5069092;28;20206;-81
2023/12/06 02:40:27;;;;;;;51.13;30.85;;;-1.50;99.90;;;;;;5064367;28;21003;-81
2023/12/06 02:42:55;;;;;;;62.08;32.33;;;-1.60;99.90;;;;;;5074667;28;20632;-81
2023/12/06 02:45:22;;;;;;;60.60;33.78;;;-1.70;99.90;;;;;;5070221;28;20269;-81
2023/12/06 02:47:49;;;;;;;112.23;44.40;;;-1.70;99.90;;;;;;5068425;28;20663;-80
2023/12/06 02:50:16;;;;;;;81.00;38.55;;;-1.70;99.90;;;;;;5085097;28;21256;-80
2023/12/06 02:52:43;;;;;;;66.18;33.88;;;-1.70;99.90;;;;;;5077610;28;20597;-81
2023/12/06 02:55:10;;;;;;;84.37;38.27;;;-1.80;99.90;;;;;;5059412;28;20247;-82
2023/12/06 02:57:37;;;;;;;99.03;41.20;;;-1.90;99.90;;;;;;5060486;28;20535;-81
2023/12/06 03:00:07;;;;;;;98.80;41.17;;;-1.90;99.90;;;;;;5066735;28;20200;-81
2023/12/06 03:02:35;;;;;;;135.20;49.37;;;-1.90;99.90;;;;;;5080550;28;20217;-81
2023/12/06 03:05:02;;;;;;;95.60;41.20;;;-1.90;99.90;;;;;;5088491;28;20464;-81
2023/12/06 03:07:29;;;;;;;74.40;35.35;;;-1.90;99.90;;;;;;5087659;28;20471;-82
2023/12/06 03:09:57;;;;;;;119.63;47.22;;;-1.80;99.90;;;;;;5065721;28;20682;-81
2023/12/06 03:12:24;;;;;;;120.85;45.30;;;-1.80;99.90;;;;;;5056057;28;21678;-81
2023/12/06 03:14:51;;;;;;;85.40;38.08;;;-1.90;99.90;;;;;;5057569;28;21184;-81
2023/12/06 03:17:19;;;;;;;67.40;35.63;;;-1.90;99.90;;;;;;5055726;28;20204;-81
2023/12/06 03:19:46;;;;;;;111.57;46.30;;;-2.00;99.90;;;;;;5059722;28;20636;-82
2023/12/06 03:22:13;;;;;;;127.35;47.50;;;-2.00;99.90;;;;;;5055756;28;20562;-82
2023/12/06 03:24:40;;;;;;;146.35;52.95;;;-2.00;99.90;;;;;;5060340;28;20215;-81
2023/12/06 03:27:07;;;;;;;136.73;50.33;;;-1.90;99.90;;;;;;5057169;28;20689;-81
2023/12/06 03:29:34;;;;;;;69.45;32.10;;;-1.90;99.90;;;;;;5060027;28;20532;-81
2023/12/06 03:32:01;;;;;;;94.80;41.85;;;-2.00;99.90;;;;;;5071370;28;20276;-82
2023/12/06 03:34:29;;;;;;;81.75;40.92;;;-2.10;99.90;;;;;;5074851;28;21292;-81
2023/12/06 03:36:58;;;;;;;81.45;39.78;;;-2.00;99.90;;;;;;5067498;28;20212;-81
2023/12/06 03:39:26;;;;;;;91.43;37.00;;;-2.00;99.90;;;;;;5058583;28;20876;-81
2023/12/06 03:41:53;;;;;;;71.43;37.35;;;-2.10;99.90;;;;;;5056141;28;20688;-81
2023/12/06 03:44:20;;;;;;;89.50;41.45;;;-2.10;99.90;;;;;;5054964;28;22837;-81
2023/12/06 03:46:47;;;;;;;81.90;38.65;;;-2.10;99.90;;;;;;5057791;28;21039;-81
2023/12/06 03:49:14;;;;;;;94.57;39.75;;;-2.10;99.90;;;;;;5055547;28;20591;-81
2023/12/06 03:51:42;;;;;;;75.25;36.38;;;-2.10;99.90;;;;;;5058415;28;20714;-81
2023/12/06 03:54:09;;;;;;;79.45;40.80;;;-2.20;99.90;;;;;;5056180;28;20219;-81
2023/12/06 03:56:36;;;;;;;63.50;33.90;;;-2.20;99.90;;;;;;5069077;28;20308;-82
2023/12/06 03:59:04;;;;;;;68.93;36.92;;;-2.20;99.90;;;;;;5087299;28;20530;-81
2023/12/06 04:01:31;;;;;;;92.63;45.35;;;-2.10;99.90;;;;;;5088296;28;20231;-81
2023/12/06 04:03:58;;;;;;;72.15;39.80;;;-2.10;99.90;;;;;;5071457;28;20348;-81
2023/12/06 04:06:25;;;;;;;86.70;36.13;;;-2.10;99.90;;;;;;5079152;28;20212;-82
2023/12/06 04:08:53;;;;;;;71.15;35.30;;;-2.10;99.90;;;;;;5080779;28;20213;-81
2023/12/06 04:11:20;;;;;;;67.75;37.15;;;-2.10;99.90;;;;;;5060538;28;20258;-81
2023/12/06 04:13:47;;;;;;;72.78;35.80;;;-2.10;99.90;;;;;;5065925;28;20663;-81
2023/12/06 04:16:14;;;;;;;91.00;39.47;;;-2.10;99.90;;;;;;5072527;28;20216;-82
2023/12/06 04:18:41;;;;;;;74.95;34.63;;;-2.10;99.90;;;;;;5072433;28;20208;-81
2023/12/06 04:21:08;;;;;;;63.63;33.60;;;-2.10;99.90;;;;;;5060122;28;20207;-81
2023/12/06 04:23:35;;;;;;;69.55;36.95;;;-2.20;99.90;;;;;;5053777;28;20536;-81
2023/12/06 04:26:04;;;;;;;74.30;37.97;;;-2.10;99.90;;;;;;5050028;28;20223;-81
2023/12/06 04:28:31;;;;;;;68.13;36.40;;;-2.20;99.90;;;;;;5059023;28;20282;-81
2023/12/06 04:30:58;;;;;;;69.70;33.58;;;-2.10;99.90;;;;;;5074900;28;20553;-82
2023/12/06 04:33:25;;;;;;;66.78;36.83;;;-2.10;99.90;;;;;;5079036;28;20264;-81
2023/12/06 04:35:52;;;;;;;72.95;34.53;;;-2.10;99.90;;;;;;5071825;28;20246;-81
2023/12/06 04:38:19;;;;;;;72.55;36.90;;;-2.10;99.90;;;;;;5054306;28;20215;-82
2023/12/06 04:40:46;;;;;;;61.50;31.15;;;-2.10;99.90;;;;;;5053708;28;20208;-80
2023/12/06 04:43:16;;;;;;;69.68;36.55;;;-2.10;99.90;;;;;;5059497;28;20211;-79
2023/12/06 04:45:43;;;;;;;77.25;37.58;;;-2.10;99.90;;;;;;5064154;28;20277;-80
2023/12/06 04:48:10;;;;;;;74.90;34.63;;;-2.10;99.90;;;;;;5073631;28;20579;-81
2023/12/06 04:50:37;;;;;;;74.57;34.63;;;-2.10;99.90;;;;;;5081515;28;20283;-80
2023/12/06 04:53:04;;;;;;;65.03;36.28;;;-2.10;99.90;;;;;;5070919;28;20204;-80
2023/12/06 04:55:31;;;;;;;63.85;33.97;;;-2.00;99.90;;;;;;5078924;28;20237;-81
2023/12/06 04:57:58;;;;;;;73.78;33.90;;;-2.00;99.90;;;;;;5091267;28;20207;-80
2023/12/06 05:00:26;;;;;;;63.90;33.42;;;-2.00;99.90;;;;;;5088515;28;20200;-81
2023/12/06 05:02:54;;;;;;;68.15;38.50;;;-1.90;99.90;;;;;;5077694;28;20203;-80
2023/12/06 05:05:21;;;;;;;73.53;41.47;;;-1.80;99.90;;;;;;5074384;28;20261;-81
2023/12/06 05:07:48;;;;;;;187.50;105.97;;;-1.70;99.90;;;;;;5079774;28;20576;-83
2023/12/06 05:10:15;;;;;;;115.25;68.22;;;-1.70;99.90;;;;;;5072830;28;20596;-81
2023/12/06 05:12:42;;;;;;;76.43;40.92;;;-1.60;99.90;;;;;;5067289;28;20218;-81
2023/12/06 05:15:10;;;;;;;82.57;38.83;;;-1.70;99.90;;;;;;5078303;28;20509;-81
2023/12/06 05:17:39;;;;;;;81.05;38.85;;;-1.60;99.90;;;;;;5065834;28;20203;-82
2023/12/06 05:20:07;;;;;;;70.18;37.80;;;-1.80;99.90;;;;;;5076638;28;20614;-82
2023/12/06 05:22:34;;;;;;;77.85;39.10;;;-1.90;99.90;;;;;;5079736;28;20277;-81
2023/12/06 05:25:03;;;;;;;66.78;36.38;;;-1.80;99.90;;;;;;5085176;28;20752;-81
2023/12/06 05:27:30;;;;;;;84.03;37.20;;;-1.90;99.90;;;;;;5071576;28;20202;-82
2023/12/06 05:29:57;;;;;;;62.03;36.08;;;-1.70;99.90;;;;;;5076830;28;20198;-82
2023/12/06 05:32:24;;;;;;;64.40;35.80;;;-1.80;99.90;;;;;;5068297;28;20287;-82
2023/12/06 05:34:52;;;;;;;78.20;35.88;;;-1.80;99.90;;;;;;5072116;28;20199;-82
2023/12/06 05:37:20;;;;;;;71.20;35.80;;;-1.70;99.90;;;;;;5075383;28;20207;-82
2023/12/06 05:39:47;;;;;;;69.95;36.20;;;-1.70;99.90;;;;;;5071136;28;20207;-82
2023/12/06 05:42:16;;;;;;;60.33;34.58;;;-1.80;99.90;;;;;;5084764;28;20568;-83
2023/12/06 05:44:43;;;;;;;61.60;33.15;;;-1.80;99.90;;;;;;5068216;28;20621;-84
2023/12/06 05:47:10;;;;;;;74.65;38.72;;;-1.90;99.90;;;;;;5079957;28;20267;-84
2023/12/06 05:49:37;;;;;;;68.22;36.28;;;-1.80;99.90;;;;;;5070875;28;20218;-84
2023/12/06 05:52:06;;;;;;;64.00;35.95;;;-1.90;99.90;;;;;;5076097;28;20227;-84
2023/12/06 05:54:33;;;;;;;70.32;39.35;;;-1.90;99.90;;;;;;5070853;28;20645;-84
2023/12/06 05:57:00;;;;;;;68.53;35.10;;;-1.90;99.90;;;;;;5072770;28;20208;-84
2023/12/06 05:59:27;;;;;;;71.68;35.38;;;-1.90;99.90;;;;;;5066620;28;20275;-84
2023/12/06 06:01:55;;;;;;;75.25;35.97;;;-1.90;99.90;;;;;;5088719;28;20205;-84
2023/12/06 06:04:22;;;;;;;66.65;37.28;;;-1.90;99.90;;;;;;5068242;28;20235;-84
2023/12/06 06:06:49;;;;;;;67.05;35.63;;;-1.80;99.90;;;;;;5082016;28;20263;-84
2023/12/06 06:09:17;;;;;;;65.18;35.95;;;-1.80;99.90;;;;;;5073971;28;20238;-84
2023/12/06 06:11:44;;;;;;;62.15;33.72;;;-1.70;99.90;;;;;;5071650;28;20240;-84
2023/12/06 06:14:11;;;;;;;64.15;35.22;;;-1.60;99.90;;;;;;5072135;28;20294;-84
2023/12/06 06:16:38;;;;;;;65.00;35.30;;;-1.50;99.90;;;;;;5074789;28;20204;-83
2023/12/06 06:19:05;;;;;;;58.20;33.60;;;-1.50;99.90;;;;;;5068941;28;20856;-84
2023/12/06 06:21:32;;;;;;;65.70;34.05;;;-1.50;99.90;;;;;;5065637;28;20202;-83
2023/12/06 06:23:59;;;;;;;59.55;33.95;;;-1.60;99.90;;;;;;5068970;28;20203;-83
2023/12/06 06:26:28;;;;;;;68.63;35.63;;;-1.60;99.90;;;;;;5070452;28;20207;-83
2023/12/06 06:28:55;;;;;;;72.53;35.45;;;-1.60;99.90;;;;;;5084241;28;20669;-83
2023/12/06 06:31:22;;;;;;;70.35;34.85;;;-1.70;99.90;;;;;;5079637;28;20234;-83
2023/12/06 06:33:49;;;;;;;62.78;33.90;;;-1.60;99.90;;;;;;5077757;28;20587;-84
2023/12/06 06:36:16;;;;;;;62.63;33.92;;;-1.60;99.90;;;;;;5093163;28;20269;-84
2023/12/06 06:38:43;;;;;;;69.68;36.90;;;-1.60;99.90;;;;;;5076971;28;20831;-83
2023/12/06 06:41:10;;;;;;;69.47;33.65;;;-1.60;99.90;;;;;;5074905;28;20199;-82
2023/12/06 06:43:38;;;;;;;63.85;34.90;;;-1.50;99.90;;;;;;5078089;28;20220;-82
2023/12/06 06:46:05;;;;;;;70.72;36.92;;;-1.50;99.90;;;;;;5066253;28;20277;-82
2023/12/06 06:48:32;;;;;;;56.63;32.95;;;-1.50;99.90;;;;;;5074882;28;20261;-81
2023/12/06 06:50:59;;;;;;;67.15;37.50;;;-1.50;99.90;;;;;;5076183;28;20276;-80
2023/12/06 06:53:26;;;;;;;67.20;35.10;;;-1.40;99.90;;;;;;5075312;28;20247;-80
2023/12/06 06:55:53;;;;;;;67.50;35.85;;;-1.40;99.90;;;;;;5073307;28;20485;-81
2023/12/06 06:58:20;;;;;;;61.83;33.92;;;-1.50;99.90;;;;;;5071018;28;20298;-81
2023/12/06 07:00:49;;;;;;;76.03;38.33;;;-1.40;99.90;;;;;;5075098;28;20222;-80
2023/12/06 07:03:16;;;;;;;80.47;40.35;;;-1.40;99.90;;;;;;5070126;28;20215;-80
2023/12/06 07:05:43;;;;;;;79.72;39.50;;;-1.40;99.90;;;;;;5072452;28;20309;-81
2023/12/06 07:08:12;;;;;;;78.88;37.03;;;-1.30;99.90;;;;;;5066822;28;20674;-83
2023/12/06 07:10:40;;;;;;;65.90;33.40;;;-1.30;99.90;;;;;;5076077;28;20214;-81
2023/12/06 07:13:07;;;;;;;66.32;34.28;;;-1.30;99.90;;;;;;5075946;28;20199;-81
2023/12/06 07:15:34;;;;;;;69.47;36.67;;;-1.20;99.90;;;;;;5070099;28;20215;-81
2023/12/06 07:18:03;;;;;;;59.03;33.25;;;-1.00;99.90;;;;;;5069506;28;20196;-82
2023/12/06 07:20:30;;;;;;;60.80;38.20;;;-0.90;99.90;;;;;;5076932;28;20208;-81
2023/12/06 07:22:58;;;;;;;55.13;32.93;;;-0.90;99.90;;;;;;5076273;28;20507;-84
2023/12/06 07:25:25;;;;;;;57.60;32.77;;;-0.80;99.90;;;;;;5075834;28;21937;-81
2023/12/06 07:27:52;;;;;;;64.00;35.50;;;-0.60;99.90;;;;;;5071523;28;20459;-81
2023/12/06 07:30:19;;;;;;;55.17;33.33;;;-0.50;99.90;;;;;;5071225;28;21121;-81
2023/12/06 07:32:46;;;;;;;61.10;33.90;;;-0.50;99.90;;;;;;5069983;28;20538;-82
2023/12/06 07:35:15;;;;;;;55.87;31.60;;;-0.30;99.90;;;;;;5072515;28;20471;-82
2023/12/06 07:37:42;;;;;;;54.60;31.60;;;-0.30;99.90;;;;;;5073019;28;20463;-83
2023/12/06 07:40:11;;;;;;;57.17;33.57;;;-0.30;99.90;;;;;;5070208;28;20862;-83
2023/12/06 07:42:38;;;;;;;63.83;31.30;;;-0.50;99.90;;;;;;5076705;28;20521;-83
2023/12/06 07:45:05;;;;;;;58.60;33.40;;;-0.30;99.90;;;;;;5070167;28;20472;-83
2023/12/06 07:47:33;;;;;;;48.23;30.00;;;-0.40;99.90;;;;;;5074400;28;20466;-83
2023/12/06 07:50:01;;;;;;;57.67;29.20;;;-0.30;99.90;;;;;;5074723;28;20802;-83
2023/12/06 07:52:33;;;;;;;63.63;33.10;;;-0.30;99.90;;;;;;5070616;28;20567;-83
2023/12/06 07:55:00;;;;;;;49.73;29.83;;;-0.30;99.90;;;;;;5067291;28;20566;-83
2023/12/06 07:57:28;;;;;;;57.20;32.17;;;-0.10;99.90;;;;;;5065673;28;20828;-83
2023/12/06 07:59:55;;;;;;;60.33;34.77;;;0.00;99.90;;;;;;5077178;28;20560;-83
2023/12/06 08:02:23;;;;;;;64.70;33.30;;;-0.10;99.90;;;;;;5068780;28;20602;-83
2023/12/06 08:04:49;;;;;;;60.07;35.43;;;0.00;99.90;;;;;;5073202;28;20978;-83
2023/12/06 08:07:17;;;;;;;57.20;31.57;;;-0.20;99.90;;;;;;5075888;28;20482;-83
2023/12/06 08:09:45;;;;;;;58.43;33.17;;;-0.10;99.90;;;;;;5078293;28;20843;-82
2023/12/06 08:12:12;;;;;;;57.67;31.70;;;-0.20;99.90;;;;;;5066443;28;20568;-83
2023/12/06 08:14:40;;;;;;;58.37;32.50;;;0.00;99.90;;;;;;5071948;28;20523;-83
2023/12/06 08:17:07;;;;;;;53.70;30.70;;;-0.20;99.90;;;;;;5065352;28;20484;-83
2023/12/06 08:19:34;;;;;;;53.37;31.70;;;-0.20;99.90;;;;;;5062686;28;20516;-83
2023/12/06 08:22:02;;;;;;;49.60;30.10;;;-0.20;99.90;;;;;;5067543;28;20463;-82
2023/12/06 08:24:29;;;;;;;55.47;31.03;;;0.00;99.90;;;;;;5069853;28;20470;-82
2023/12/06 08:26:57;;;;;;;53.10;31.57;;;0.20;99.90;;;;;;5068873;28;20530;-82
2023/12/06 08:29:25;;;;;;;49.97;29.90;;;0.10;99.90;;;;;;5071727;28;20488;-82
2023/12/06 08:31:52;;;;;;;41.83;27.37;;;0.10;99.90;;;;;;5069436;28;20494;-82
2023/12/06 08:34:19;;;;;;;47.33;28.70;;;0.10;99.90;;;;;;5064252;28;20531;-82
2023/12/06 08:36:46;;;;;;;50.50;32.17;;;0.00;99.90;;;;;;5066776;28;20981;-82
2023/12/06 08:39:13;;;;;;;55.17;31.17;;;-0.30;99.90;;;;;;5068158;28;20475;-82
2023/12/06 08:41:40;;;;;;;54.53;31.47;;;-0.30;99.90;;;;;;5077416;28;20526;-82
2023/12/06 08:44:08;;;;;;;54.60;30.73;;;-0.20;99.90;;;;;;5065205;28;20501;-82
2023/12/06 08:46:35;;;;;;;43.73;30.00;;;0.00;99.90;;;;;;5069626;28;20466;-83
2023/12/06 08:49:03;;;;;;;47.07;28.17;;;0.00;99.90;;;;;;5073819;28;20463;-82
2023/12/06 08:51:30;;;;;;;58.80;34.40;;;0.10;99.90;;;;;;5067202;28;20541;-82
2023/12/06 08:53:57;;;;;;;55.90;34.70;;;0.20;99.90;;;;;;5075175;28;20983;-82
2023/12/06 08:56:24;;;;;;;57.83;33.40;;;0.10;99.90;;;;;;5066124;28;20487;-82
2023/12/06 08:58:52;;;;;;;64.60;35.67;;;0.00;99.90;;;;;;5076189;28;20439;-82
2023/12/06 09:01:20;;;;;;;54.23;31.17;;;0.20;99.90;;;;;;5080172;28;20502;-82
2023/12/06 09:03:47;;;;;;;53.00;29.50;;;0.50;99.90;;;;;;5078039;28;20458;-82
2023/12/06 09:06:14;;;;;;;58.60;32.80;;;0.70;99.90;;;;;;5069366;28;20475;-82
2023/12/06 09:08:41;;;;;;;54.57;34.70;;;0.70;99.90;;;;;;5075959;28;20479;-83
2023/12/06 09:11:08;;;;;;;47.67;29.37;;;0.70;99.90;;;;;;5075270;28;20541;-83
2023/12/06 09:13:35;;;;;;;50.60;32.00;;;0.90;99.90;;;;;;5072139;28;20501;-83
2023/12/06 09:16:02;;;;;;;50.30;30.27;;;1.10;99.90;;;;;;5065482;28;20458;-83
2023/12/06 09:18:31;;;;;;;56.10;33.40;;;1.20;99.90;;;;;;5069387;28;21446;-83
2023/12/06 09:20:58;;;;;;;53.50;28.63;;;1.10;99.90;;;;;;5085287;28;20458;-84
2023/12/06 09:23:25;;;;;;;53.90;31.40;;;1.50;99.90;;;;;;5065097;28;20515;-83
2023/12/06 09:25:52;;;;;;;49.10;28.67;;;1.40;99.90;;;;;;5072562;28;20934;-83
2023/12/06 09:28:20;;;;;;;54.33;29.13;;;1.50;99.90;;;;;;5075146;28;20463;-83
2023/12/06 09:30:46;;;;;;;48.80;30.90;;;1.60;99.90;;;;;;5078372;28;20526;-83
2023/12/06 09:33:13;;;;;;;53.33;31.20;;;1.70;99.90;;;;;;5072454;28;21139;-83
2023/12/06 09:35:42;;;;;;;43.17;26.63;;;1.80;99.90;;;;;;5075294;28;20520;-83
2023/12/06 09:38:09;;;;;;;49.13;31.03;;;1.90;99.90;;;;;;5073829;28;20468;-83
2023/12/06 09:40:36;;;;;;;49.47;28.80;;;2.00;99.90;;;;;;5085075;28;20459;-83
2023/12/06 09:43:03;;;;;;;49.07;28.60;;;1.70;99.90;;;;;;5077392;28;20975;-81
2023/12/06 09:45:31;;;;;;;48.60;26.67;;;2.00;99.90;;;;;;5076612;28;20546;-82
2023/12/06 09:47:58;;;;;;;45.57;28.03;;;2.20;99.90;;;;;;5070269;28;20485;-82
2023/12/06 09:50:25;;;;;;;43.00;28.47;;;2.20;99.90;;;;;;5065486;28;20544;-82
2023/12/06 09:52:54;;;;;;;43.93;27.70;;;2.10;99.90;;;;;;5073880;28;20581;-82
2023/12/06 09:55:23;;;;;;;45.10;27.30;;;1.70;99.90;;;;;;5076162;28;20545;-82
2023/12/06 09:57:51;;;;;;;38.77;25.33;;;1.90;99.90;;;;;;5066825;28;20987;-82
2023/12/06 10:00:18;;;;;;;44.87;27.77;;;2.10;99.90;;;;;;5070042;28;20447;-82
2023/12/06 10:02:50;;;;;;;40.20;28.10;;;2.30;99.90;;;;;;5070988;28;20467;-82
2023/12/06 10:05:17;;;;;;;42.17;26.87;;;2.40;99.90;;;;;;5070387;28;20460;-82
2023/12/06 10:07:44;;;;;;;46.27;27.57;;;2.50;99.90;;;;;;5071292;28;20475;-82
2023/12/06 10:10:16;;;;;;;44.17;27.70;;;2.40;99.90;;;;;;5073467;28;20555;-82
2023/12/06 10:12:47;;;;;;;45.17;28.20;;;2.60;99.90;;;;;;5070854;28;20497;-82
2023/12/06 10:15:15;;;;;;;48.57;31.87;;;2.50;99.90;;;;;;5075184;28;20840;-82
2023/12/06 10:17:42;;;;;;;45.43;28.40;;;2.60;99.90;;;;;;5066323;28;20464;-82
2023/12/06 10:20:09;;;;;;;45.80;29.67;;;2.60;99.90;;;;;;5070548;28;20467;-82
2023/12/06 10:22:36;;;;;;;60.03;38.03;;;2.70;99.90;;;;;;5071947;28;20468;-82
2023/12/06 10:25:06;;;;;;;46.17;26.83;;;2.10;99.90;;;;;;5070072;28;20588;-82
2023/12/06 10:27:34;;;;;;;38.67;25.83;;;2.20;99.90;;;;;;5067254;28;20869;-82
2023/12/06 10:30:02;;;;;;;40.50;26.40;;;2.20;99.90;;;;;;5068306;28;20456;-82
2023/12/06 10:32:31;;;;;;;45.67;29.93;;;2.20;99.90;;;;;;5063246;28;20487;-82
2023/12/06 10:35:00;;;;;;;50.20;29.40;;;2.20;99.90;;;;;;5080500;28;21234;-82
2023/12/06 10:37:28;;;;;;;44.27;25.90;;;2.20;99.90;;;;;;5062064;28;21048;-82
2023/12/06 10:40:01;;;;;;;47.30;29.57;;;2.20;99.90;;;;;;5068899;28;20464;-82
2023/12/06 10:42:35;;;;;;;41.87;26.87;;;2.30;99.90;;;;;;5076261;28;20892;-81
2023/12/06 10:45:03;;;;;;;38.80;24.70;;;2.30;99.90;;;;;;5064928;28;20486;-81
2023/12/06 10:47:30;;;;;;;39.77;24.60;;;2.30;99.90;;;;;;5064051;28;20460;-81
2023/12/06 10:49:58;;;;;;;42.43;27.97;;;2.40;99.90;;;;;;5067997;28;20547;-82
2023/12/06 10:52:25;;;;;;;38.60;25.00;;;2.20;99.90;;;;;;5069342;28;20560;-82
2023/12/06 10:54:55;;;;;;;40.73;25.67;;;2.40;99.90;;;;;;5068130;28;20883;-81
2023/12/06 10:57:22;;;;;;;44.33;27.90;;;2.60;99.90;;;;;;5061575;28;20463;-81
2023/12/06 10:59:52;;;;;;;62.37;37.70;;;2.50;99.90;;;;;;5070729;28;20900;-81
2023/12/06 11:02:20;;;;;;;53.20;32.47;;;2.40;99.90;;;;;;5066852;28;20856;-81
2023/12/06 11:04:51;;;;;;;57.40;30.10;;;2.50;99.90;;;;;;5077993;28;20598;-82
2023/12/06 11:07:29;;;;;;;51.47;31.23;;;2.10;99.90;;;;;;5072103;28;20467;-82
2023/12/06 11:10:08;;;;;;;42.23;25.60;;;1.90;99.90;;;;;;5077504;28;20515;-81
2023/12/06 11:12:53;;;;;;;63.03;35.97;;;1.90;99.90;;;;;;5072183;28;20484;-81
2023/12/06 11:15:33;;;;;;;82.83;44.43;;;2.20;99.90;;;;;;5082389;28;20454;-81
2023/12/06 11:18:09;;;;;;;48.30;31.37;;;2.20;99.90;;;;;;5071475;28;20536;-82
2023/12/06 11:20:38;;;;;;;60.77;34.80;;;2.20;99.90;;;;;;5072769;28;21081;-82
2023/12/06 11:23:06;;;;;;;61.27;34.33;;;2.20;99.90;;;;;;5075688;28;20486;-82
2023/12/06 11:25:33;;;;;;;64.03;35.40;;;2.50;99.90;;;;;;5071917;28;20520;-82
2023/12/06 11:28:01;;;;;;;48.30;28.07;;;2.50;99.90;;;;;;5073886;28;21333;-82
2023/12/06 11:30:29;;;;;;;43.67;29.40;;;2.70;99.90;;;;;;5074015;28;20535;-82
2023/12/06 11:32:58;;;;;;;43.90;28.70;;;2.50;99.90;;;;;;5075656;28;20493;-83
2023/12/06 11:35:25;;;;;;;42.97;27.87;;;2.30;99.90;;;;;;5075236;28;20494;-83
2023/12/06 11:37:53;;;;;;;43.60;28.50;;;2.00;99.90;;;;;;5078607;28;20981;-82
2023/12/06 11:40:23;;;;;;;50.63;30.40;;;2.10;99.90;;;;;;5080129;28;20500;-82
2023/12/06 11:42:55;;;;;;;55.77;33.97;;;2.40;99.90;;;;;;5074572;28;20455;-82
2023/12/06 11:45:28;;;;;;;54.00;31.00;;;2.70;99.90;;;;;;5076650;28;20914;-82
2023/12/06 11:47:58;;;;;;;46.03;29.47;;;2.90;99.90;;;;;;5069499;28;21135;-82
2023/12/06 11:50:26;;;;;;;51.60;29.60;;;2.60;99.90;;;;;;5069320;28;20455;-82
2023/12/06 11:52:54;;;;;;;49.73;30.40;;;2.70;99.90;;;;;;5083591;28;20774;-83
2023/12/06 11:55:24;;;;;;;42.33;27.80;;;2.80;99.90;;;;;;5076103;28;20555;-81
2023/12/06 11:58:07;;;;;;;44.03;26.97;;;3.00;99.90;;;;;;5077029;28;20455;-82
2023/12/06 12:00:35;;;;;;;43.53;29.00;;;3.00;99.90;;;;;;5073796;28;20910;-83
2023/12/06 12:03:05;;;;;;;43.83;27.70;;;3.10;99.90;;;;;;5081158;28;20635;-82
2023/12/06 12:05:32;;;;;;;59.70;36.63;;;3.10;99.90;;;;;;5078049;28;20773;-82
2023/12/06 12:08:01;;;;;;;128.97;74.40;;;3.00;99.90;;;;;;5069964;28;20590;-82
2023/12/06 12:10:29;;;;;;;60.33;38.60;;;3.20;99.90;;;;;;5071813;28;20539;-81
2023/12/06 12:12:56;;;;;;;46.40;30.50;;;3.10;99.90;;;;;;5073872;28;20541;-82
2023/12/06 12:15:25;;;;;;;39.27;26.67;;;3.00;99.90;;;;;;5074323;28;20459;-82
2023/12/06 12:17:52;;;;;;;47.07;30.40;;;3.20;99.90;;;;;;5077805;28;20524;-82
2023/12/06 12:20:21;;;;;;;47.00;26.20;;;3.40;99.90;;;;;;5069763;28;20516;-82
2023/12/06 12:22:49;;;;;;;43.43;27.03;;;3.40;99.90;;;;;;5073087;28;20460;-83
2023/12/06 12:25:16;;;;;;;42.67;28.23;;;3.40;99.90;;;;;;5072042;28;20508;-83
2023/12/06 12:27:44;;;;;;;49.83;31.90;;;3.40;99.90;;;;;;5074499;28;20533;-82
2023/12/06 12:30:12;;;;;;;50.13;30.00;;;3.10;99.90;;;;;;5071372;28;20484;-82
2023/12/06 12:32:43;;;;;;;51.43;28.57;;;3.00;99.90;;;;;;5074965;28;20478;-82